createdAt,value
2023-05-10T06:56:02.660Z,28.28
2023-05-10T06:57:04.161Z,28.25
2023-05-10T06:58:12.739Z,28.15
2023-05-10T06:59:02.700Z,28.05
2023-05-10T07:00:02.649Z,27.97
2023-05-10T07:01:02.778Z,27.84
2023-05-10T07:02:02.686Z,27.79
2023-05-10T07:03:02.671Z,27.67
2023-05-10T07:04:02.621Z,27.59
2023-05-10T07:05:03.406Z,27.49
2023-05-10T07:06:02.618Z,27.42
2023-05-10T07:07:02.601Z,27.36
2023-05-10T07:08:02.601Z,27.28
2023-05-10T07:09:02.614Z,27.18
2023-05-10T07:10:02.592Z,27.16
2023-05-10T07:11:02.576Z,27.12
2023-05-10T07:12:02.663Z,27.09
2023-05-10T07:13:03.174Z,27.05
2023-05-10T07:14:02.562Z,27.02
2023-05-10T07:15:02.673Z,27.02
2023-05-10T07:16:02.604Z,26.97
2023-05-10T07:17:02.551Z,26.97
2023-05-10T07:18:02.658Z,26.95
2023-05-10T07:19:02.532Z,26.94
2023-05-10T07:20:02.539Z,26.90
2023-05-10T07:21:02.569Z,26.91
2023-05-10T07:22:02.499Z,26.90
2023-05-10T07:23:02.522Z,26.91
2023-05-10T07:24:02.592Z,26.90
2023-05-10T07:25:02.498Z,26.90
2023-05-10T07:26:02.484Z,26.92
2023-05-10T07:27:02.618Z,26.90
2023-05-10T07:28:02.901Z,26.88
2023-05-10T07:29:02.507Z,26.84
2023-05-10T07:30:02.552Z,26.90
2023-05-10T07:31:02.708Z,26.94
2023-05-10T07:32:03.657Z,27.01
2023-05-10T07:33:02.675Z,27.02
2023-05-10T07:34:02.622Z,27.11
2023-05-10T07:35:02.608Z,27.13
2023-05-10T07:36:02.657Z,27.21
2023-05-10T07:37:02.587Z,27.26
2023-05-10T07:38:02.646Z,27.32
2023-05-10T07:39:02.558Z,27.39
2023-05-10T07:40:02.609Z,27.45
2023-05-10T07:41:02.572Z,27.49
2023-05-10T07:42:02.575Z,27.53
2023-05-10T07:43:02.679Z,27.57
2023-05-10T07:44:02.560Z,27.64
2023-05-10T07:45:02.545Z,27.67
2023-05-10T07:46:02.663Z,27.71
2023-05-10T07:47:02.518Z,27.76
2023-05-10T07:48:04.127Z,27.81
2023-05-10T07:49:02.499Z,27.87
2023-05-10T07:50:02.622Z,27.89
2023-05-10T07:51:02.482Z,27.96
2023-05-10T07:52:02.482Z,27.97
2023-05-10T07:53:02.492Z,28.01
2023-05-10T07:54:03.524Z,28.03
2023-05-10T07:55:02.610Z,28.05
2023-05-10T07:56:02.547Z,28.07
2023-05-10T07:57:02.643Z,28.10
2023-05-10T07:58:02.708Z,28.12
2023-05-10T07:59:02.704Z,28.17
2023-05-10T08:00:03.112Z,28.15
2023-05-10T08:01:02.866Z,28.17
2023-05-10T08:02:02.901Z,28.17
2023-05-10T08:03:03.010Z,28.20
2023-05-10T08:04:03.163Z,28.22
2023-05-10T08:05:03.009Z,28.25
2023-05-10T08:06:03.069Z,28.22
2023-05-10T08:07:03.114Z,28.28
2023-05-10T08:08:03.283Z,28.27
2023-05-10T08:09:03.229Z,28.31
2023-05-10T08:10:03.259Z,28.32
2023-05-10T08:11:03.327Z,28.34
2023-05-10T08:12:03.468Z,28.35
2023-05-10T08:13:03.415Z,28.32
2023-05-10T08:14:03.613Z,28.35
2023-05-10T08:15:03.612Z,28.37
2023-05-10T08:16:03.566Z,28.42
2023-05-10T08:17:03.597Z,28.41
2023-05-10T08:18:03.591Z,28.44
2023-05-10T08:19:03.668Z,28.49
2023-05-10T08:20:03.613Z,28.49
2023-05-10T08:21:03.612Z,28.42
2023-05-10T08:22:03.685Z,28.32
2023-05-10T08:23:03.735Z,28.18
2023-05-10T08:24:03.794Z,27.97
2023-05-10T08:25:04.115Z,27.80
2023-05-10T08:26:03.762Z,27.69
2023-05-10T08:27:03.787Z,27.63
2023-05-10T08:28:03.799Z,27.60
2023-05-10T08:29:03.788Z,27.57
2023-05-10T08:30:04.150Z,27.61
2023-05-10T08:31:03.812Z,27.64
2023-05-10T08:32:03.800Z,27.67
2023-05-10T08:33:03.897Z,27.69
2023-05-10T08:34:03.782Z,27.73
2023-05-10T08:35:04.142Z,27.77
2023-05-10T08:36:03.816Z,27.80
2023-05-10T08:37:03.856Z,27.87
2023-05-10T08:38:03.923Z,27.90
2023-05-10T08:39:04.038Z,27.94
2023-05-10T08:40:04.172Z,28.01
2023-05-10T08:41:05.646Z,28.07
2023-05-10T08:42:04.130Z,28.11
2023-05-10T08:43:04.196Z,28.15
2023-05-10T08:44:04.267Z,28.17
2023-05-10T08:45:04.652Z,28.22
2023-05-10T08:46:04.300Z,28.25
2023-05-10T08:47:04.465Z,28.28
2023-05-10T08:48:04.437Z,28.31
2023-05-10T08:49:04.388Z,28.32
2023-05-10T08:50:04.431Z,28.37
2023-05-10T08:51:04.456Z,28.39
2023-05-10T08:52:04.498Z,28.42
2023-05-10T08:53:04.619Z,28.42
2023-05-10T08:54:04.618Z,28.45
2023-05-10T08:55:04.746Z,28.45
2023-05-10T08:56:04.625Z,28.49
2023-05-10T08:57:04.632Z,28.51
2023-05-10T08:58:04.702Z,28.49
2023-05-10T08:59:04.704Z,28.45
2023-05-10T09:00:04.755Z,28.42
2023-05-10T09:01:04.826Z,28.39
2023-05-10T09:02:04.816Z,28.38
2023-05-10T09:03:04.903Z,28.34
2023-05-10T09:04:04.928Z,28.32
2023-05-10T09:05:04.905Z,28.31
2023-05-10T09:06:04.825Z,28.27
2023-05-10T09:07:04.819Z,28.25
2023-05-10T09:08:04.771Z,28.24
2023-05-10T09:09:04.750Z,28.20
2023-05-10T09:10:05.651Z,28.20
2023-05-10T09:11:04.799Z,28.18
2023-05-10T09:12:04.781Z,28.14
2023-05-10T09:13:04.789Z,28.15
2023-05-10T09:14:04.826Z,28.12
2023-05-10T09:15:06.136Z,28.15
2023-05-10T09:16:17.471Z,28.14
2023-05-10T09:17:04.994Z,28.14
2023-05-10T09:18:04.873Z,28.14
2023-05-10T09:19:04.959Z,28.17
2023-05-10T09:20:04.854Z,28.20
2023-05-10T09:21:04.819Z,28.24
2023-05-10T09:22:04.878Z,28.28
2023-05-10T09:23:04.797Z,28.32
2023-05-10T09:24:04.816Z,28.35
2023-05-10T09:25:05.166Z,28.38
2023-05-10T09:26:05.169Z,28.37
2023-05-10T09:27:04.777Z,28.37
2023-05-10T09:28:04.787Z,28.41
2023-05-10T09:29:04.757Z,28.39
2023-05-10T09:30:04.842Z,28.42
2023-05-10T09:31:05.229Z,28.45
2023-05-10T09:32:04.763Z,28.45
2023-05-10T09:33:04.765Z,28.42
2023-05-10T09:34:04.826Z,28.45
2023-05-10T09:35:04.731Z,28.45
2023-05-10T09:36:05.146Z,28.44
2023-05-10T09:37:04.825Z,28.42
2023-05-10T09:38:04.786Z,28.42
2023-05-10T09:39:04.789Z,28.39
2023-05-10T09:40:04.815Z,28.38
2023-05-10T09:41:04.809Z,28.38
2023-05-10T09:42:04.879Z,28.35
2023-05-10T09:43:04.767Z,28.34
2023-05-10T09:44:04.777Z,28.37
2023-05-10T09:45:04.798Z,28.31
2023-05-10T09:46:05.243Z,28.32
2023-05-10T09:47:04.759Z,28.30
2023-05-10T09:48:04.832Z,28.28
2023-05-10T09:49:04.723Z,28.25
2023-05-10T09:50:04.810Z,28.25
2023-05-10T09:51:05.197Z,28.25
2023-05-10T09:52:04.760Z,28.24
2023-05-10T09:53:04.956Z,28.21
2023-05-10T09:54:04.837Z,28.22
2023-05-10T09:55:04.808Z,28.20
2023-05-10T09:56:05.162Z,28.20
2023-05-10T09:57:04.948Z,28.21
2023-05-10T09:58:05.058Z,28.20
2023-05-10T09:59:05.066Z,28.17
2023-05-10T10:00:05.040Z,28.18
2023-05-10T10:01:05.160Z,28.17
2023-05-10T10:02:05.187Z,28.15
2023-05-10T10:03:05.641Z,28.17
2023-05-10T10:04:05.231Z,28.17
2023-05-10T10:05:05.370Z,28.14
2023-05-10T10:06:06.804Z,28.14
2023-05-10T10:07:05.427Z,28.17
2023-05-10T10:08:05.351Z,28.11
2023-05-10T10:09:05.308Z,28.11
2023-05-10T10:10:05.366Z,28.14
2023-05-10T10:11:05.295Z,28.11
2023-05-10T10:12:05.323Z,28.11
2023-05-10T10:13:05.325Z,28.10
2023-05-10T10:14:06.224Z,28.11
2023-05-10T10:15:05.325Z,28.10
2023-05-10T10:16:05.901Z,28.08
2023-05-10T10:17:07.214Z,28.10
2023-05-10T10:18:05.410Z,28.08
2023-05-10T10:19:06.250Z,28.08
2023-05-10T10:20:05.263Z,28.08
2023-05-10T10:21:05.721Z,27.80
2023-05-10T10:22:05.464Z,27.38
2023-05-10T10:23:05.271Z,27.15
2023-05-10T10:24:05.228Z,26.85
2023-05-10T10:25:05.283Z,26.55
2023-05-10T10:26:08.185Z,26.37
2023-05-10T10:27:05.203Z,26.17
2023-05-10T10:28:05.198Z,26.12
2023-05-10T10:29:05.226Z,26.15
2023-05-10T10:30:05.191Z,26.16
2023-05-10T10:31:05.244Z,26.22
2023-05-10T10:32:05.243Z,26.30
2023-05-10T10:33:13.269Z,26.41
2023-05-10T10:34:05.190Z,26.53
2023-05-10T10:35:05.152Z,26.64
2023-05-10T10:36:05.219Z,26.77
2023-05-10T10:37:05.196Z,26.88
2023-05-10T10:38:05.151Z,26.98
2023-05-10T10:39:05.146Z,27.05
2023-05-10T10:40:05.154Z,27.15
2023-05-10T10:41:05.169Z,27.22
2023-05-10T10:42:05.749Z,27.29
2023-05-10T10:43:05.734Z,27.35
2023-05-10T10:44:05.219Z,27.43
2023-05-10T10:45:05.076Z,27.46
2023-05-10T10:46:05.115Z,27.49
2023-05-10T10:47:05.100Z,27.53
2023-05-10T10:48:05.062Z,27.57
2023-05-10T10:49:05.780Z,27.60
2023-05-10T10:50:05.089Z,27.64
2023-05-10T10:51:05.068Z,27.66
2023-05-10T10:52:05.057Z,27.66
2023-05-10T10:53:05.047Z,27.67
2023-05-10T10:54:05.044Z,27.70
2023-05-10T10:55:05.010Z,27.73
2023-05-10T10:56:05.120Z,27.73
2023-05-10T10:57:05.019Z,27.71
2023-05-10T10:58:05.009Z,27.70
2023-05-10T10:59:04.997Z,27.69
2023-05-10T11:00:04.984Z,27.67
2023-05-10T11:01:05.118Z,27.67
2023-05-10T11:02:05.250Z,27.69
2023-05-10T11:03:05.041Z,27.66
2023-05-10T11:04:05.045Z,27.66
2023-05-10T11:05:04.939Z,27.66
2023-05-10T11:06:05.097Z,27.69
2023-05-10T11:07:04.927Z,27.71
2023-05-10T11:08:04.934Z,27.70
2023-05-10T11:09:04.904Z,27.73
2023-05-10T11:10:05.693Z,27.71
2023-05-10T11:11:04.907Z,27.73
2023-05-10T11:12:04.912Z,27.73
2023-05-10T11:13:04.934Z,27.66
2023-05-10T11:14:04.912Z,27.59
2023-05-10T11:15:04.978Z,27.38
2023-05-10T11:16:05.216Z,27.26
2023-05-10T11:17:04.965Z,27.12
2023-05-10T11:18:04.924Z,27.06
2023-05-10T11:19:04.892Z,27.01
2023-05-10T11:20:04.859Z,26.94
2023-05-10T11:21:05.045Z,26.92
2023-05-10T11:22:04.953Z,26.94
2023-05-10T11:23:04.960Z,26.94
2023-05-10T11:24:04.985Z,26.92
2023-05-10T11:25:04.989Z,26.97
2023-05-10T11:26:04.963Z,26.95
2023-05-10T11:27:04.934Z,26.97
2023-05-10T11:28:05.038Z,26.97
2023-05-10T11:29:04.943Z,26.97
2023-05-10T11:30:05.095Z,26.97
2023-05-10T11:31:04.972Z,26.94
2023-05-10T11:32:04.932Z,26.95
2023-05-10T11:33:04.973Z,26.92
2023-05-10T11:34:04.920Z,26.95
2023-05-10T11:35:04.925Z,26.94
2023-05-10T11:36:04.957Z,26.94
2023-05-10T11:37:05.015Z,26.91
2023-05-10T11:38:05.027Z,26.91
2023-05-10T11:39:05.113Z,26.91
2023-05-10T11:40:05.704Z,26.87
2023-05-10T11:41:05.114Z,26.91
2023-05-10T11:42:05.115Z,26.91
2023-05-10T11:43:05.052Z,26.90
2023-05-10T11:44:05.068Z,26.91
2023-05-10T11:45:05.077Z,26.91
2023-05-10T11:46:05.127Z,26.90
2023-05-10T11:47:05.042Z,26.90
2023-05-10T11:48:05.720Z,26.90
2023-05-10T11:49:05.299Z,26.90
2023-05-10T11:50:05.135Z,26.90
2023-05-10T11:51:05.016Z,26.87
2023-05-10T11:52:05.010Z,26.91
2023-05-10T11:53:05.001Z,26.88
2023-05-10T11:54:05.059Z,26.84
2023-05-10T11:55:05.127Z,26.85
2023-05-10T11:56:05.227Z,26.85
2023-05-10T11:57:05.263Z,26.87
2023-05-10T11:58:05.284Z,26.85
2023-05-10T11:59:05.381Z,26.85
2023-05-10T12:00:05.391Z,26.84
2023-05-10T12:01:05.441Z,26.82
2023-05-10T12:02:05.442Z,26.81
2023-05-10T12:03:06.375Z,26.81
2023-05-10T12:04:05.715Z,26.80
2023-05-10T12:05:05.951Z,26.81
2023-05-10T12:06:05.717Z,26.80
2023-05-10T12:07:05.415Z,26.82
2023-05-10T12:08:05.434Z,26.80
2023-05-10T12:09:05.445Z,26.80
2023-05-10T12:10:05.450Z,26.84
2023-05-10T12:11:06.248Z,26.84
2023-05-10T12:12:05.523Z,26.90
2023-05-10T12:13:06.224Z,26.94
2023-05-10T12:14:05.659Z,26.92
2023-05-10T12:15:05.675Z,26.99
2023-05-10T12:16:05.796Z,27.02
2023-05-10T12:17:05.854Z,27.03
2023-05-10T12:18:06.819Z,27.06
2023-05-10T12:19:05.948Z,27.12
2023-05-10T12:20:06.711Z,27.13
2023-05-10T12:21:05.935Z,27.15
2023-05-10T12:22:05.823Z,27.15
2023-05-10T12:23:05.812Z,27.21
2023-05-10T12:24:05.805Z,27.24
2023-05-10T12:25:05.773Z,27.24
2023-05-10T12:26:05.786Z,27.26
2023-05-10T12:27:05.788Z,27.29
2023-05-10T12:28:05.805Z,27.30
2023-05-10T12:29:06.738Z,27.33
2023-05-10T12:30:05.887Z,27.32
2023-05-10T12:31:05.737Z,27.35
2023-05-10T12:32:05.741Z,27.38
2023-05-10T12:33:05.804Z,27.36
2023-05-10T12:34:05.714Z,27.39
2023-05-10T12:35:05.802Z,27.39
2023-05-10T12:36:05.745Z,27.42
2023-05-10T12:37:05.678Z,27.40
2023-05-10T12:38:05.685Z,27.43
2023-05-10T12:39:05.692Z,27.45
2023-05-10T12:40:05.695Z,27.43
2023-05-10T12:41:05.719Z,27.43
2023-05-10T12:42:05.738Z,27.43
2023-05-10T12:43:05.683Z,27.45
2023-05-10T12:44:05.695Z,27.43
2023-05-10T12:45:05.727Z,27.45
2023-05-10T12:46:06.819Z,27.45
2023-05-10T12:47:05.740Z,27.45
2023-05-10T12:48:05.794Z,27.46
2023-05-10T12:49:09.620Z,27.46
2023-05-10T12:50:05.720Z,27.45
2023-05-10T12:51:05.714Z,27.45
2023-05-10T12:52:05.716Z,27.46
2023-05-10T12:53:05.704Z,27.46
2023-05-10T12:54:05.703Z,27.48
2023-05-10T12:55:05.677Z,27.48
2023-05-10T12:56:05.785Z,27.48
2023-05-10T12:57:05.797Z,27.48
2023-05-10T12:58:05.663Z,27.48
2023-05-10T12:59:05.673Z,27.46
2023-05-10T13:00:06.259Z,27.46
2023-05-10T13:01:06.260Z,27.46
2023-05-10T13:02:05.646Z,27.48
2023-05-10T13:03:06.240Z,27.48
2023-05-10T13:04:05.747Z,27.48
2023-05-10T13:05:05.688Z,27.45
2023-05-10T13:06:05.593Z,27.46
2023-05-10T13:07:05.606Z,27.46
2023-05-10T13:08:05.586Z,27.46
2023-05-10T13:09:05.605Z,27.46
2023-05-10T13:10:05.590Z,27.46
2023-05-10T13:11:05.564Z,27.48
2023-05-10T13:12:05.723Z,27.43
2023-05-10T13:13:05.559Z,27.46
2023-05-10T13:14:05.575Z,27.45
2023-05-10T13:15:05.643Z,27.45
2023-05-10T13:16:05.546Z,27.48
2023-05-10T13:17:05.634Z,27.49
2023-05-10T13:18:05.628Z,27.46
2023-05-10T13:19:05.616Z,27.45
2023-05-10T13:20:05.567Z,27.45
2023-05-10T13:21:05.527Z,27.46
2023-05-10T13:22:05.728Z,27.46
2023-05-10T13:23:05.571Z,27.48
2023-05-10T13:24:05.469Z,27.48
2023-05-10T13:25:05.446Z,27.46
2023-05-10T13:26:05.686Z,27.48
2023-05-10T13:27:06.243Z,27.48
2023-05-10T13:28:05.442Z,27.48
2023-05-10T13:29:06.291Z,27.46
2023-05-10T13:30:05.477Z,27.45
2023-05-10T13:31:05.492Z,27.48
2023-05-10T13:32:05.517Z,27.46
2023-05-10T13:33:05.493Z,27.46
2023-05-10T13:34:05.402Z,27.46
2023-05-10T13:35:05.384Z,27.45
2023-05-10T13:36:05.402Z,27.46
2023-05-10T13:37:05.387Z,27.48
2023-05-10T13:38:05.386Z,27.46
2023-05-10T13:39:05.397Z,27.46
2023-05-10T13:40:05.335Z,27.48
2023-05-10T13:41:05.434Z,27.46
2023-05-10T13:42:05.349Z,27.46
2023-05-10T13:43:05.344Z,27.46
2023-05-10T13:44:05.511Z,27.46
2023-05-10T13:45:05.370Z,27.46
2023-05-10T13:46:05.338Z,27.48
2023-05-10T13:47:05.378Z,27.45
2023-05-10T13:48:05.380Z,27.45
2023-05-10T13:49:05.292Z,27.46
2023-05-10T13:50:05.802Z,27.45
2023-05-10T13:51:06.322Z,27.45
2023-05-10T13:52:07.272Z,27.45
2023-05-10T13:53:05.244Z,27.48
2023-05-10T13:54:05.266Z,27.46
2023-05-10T13:55:05.345Z,27.46
2023-05-10T13:56:05.273Z,27.48
2023-05-10T13:57:05.278Z,27.46
2023-05-10T13:58:05.283Z,27.45
2023-05-10T13:59:05.236Z,27.46
2023-05-10T14:00:05.411Z,27.45
2023-05-10T14:01:05.252Z,27.45
2023-05-10T14:02:05.371Z,27.48
2023-05-10T14:03:05.379Z,27.46
2023-05-10T14:04:05.352Z,27.43
2023-05-10T14:05:05.232Z,27.43
2023-05-10T14:06:05.197Z,27.46
2023-05-10T14:07:05.294Z,27.46
2023-05-10T14:08:05.201Z,27.45
2023-05-10T14:09:06.187Z,27.45
2023-05-10T14:10:05.844Z,27.43
2023-05-10T14:11:05.157Z,27.43
2023-05-10T14:12:05.190Z,27.45
2023-05-10T14:13:05.124Z,27.40
2023-05-10T14:14:05.191Z,27.43
2023-05-10T14:15:05.190Z,27.45
2023-05-10T14:16:05.178Z,27.42
2023-05-10T14:17:08.726Z,27.45
2023-05-10T14:18:05.223Z,27.42
2023-05-10T14:19:05.179Z,27.43
2023-05-10T14:20:05.121Z,27.43
2023-05-10T14:21:05.140Z,27.42
2023-05-10T14:22:05.150Z,27.43
2023-05-10T14:23:05.107Z,27.42
2023-05-10T14:24:05.093Z,27.42
2023-05-10T14:25:05.333Z,27.43
2023-05-10T14:26:05.083Z,27.42
2023-05-10T14:27:05.086Z,27.40
2023-05-10T14:28:05.140Z,27.43
2023-05-10T14:29:05.851Z,27.43
2023-05-10T14:30:05.073Z,27.43
2023-05-10T14:31:05.137Z,27.40
2023-05-10T14:32:05.084Z,27.42
2023-05-10T14:33:05.049Z,27.42
2023-05-10T14:34:05.046Z,27.42
2023-05-10T14:35:05.033Z,27.43
2023-05-10T14:36:05.101Z,27.42
2023-05-10T14:37:05.293Z,27.40
2023-05-10T14:38:05.011Z,27.42
2023-05-10T14:39:05.001Z,27.42
2023-05-10T14:40:05.071Z,27.42
2023-05-10T14:41:04.971Z,27.43
2023-05-10T14:42:04.994Z,27.40
2023-05-10T14:43:04.966Z,27.42
2023-05-10T14:44:04.955Z,27.42
2023-05-10T14:45:04.954Z,27.43
2023-05-10T14:46:04.989Z,27.40
2023-05-10T14:47:05.021Z,27.43
2023-05-10T14:48:07.843Z,27.40
2023-05-10T14:49:04.957Z,27.40
2023-05-10T14:50:04.919Z,27.42
2023-05-10T14:51:04.930Z,27.40
2023-05-10T14:52:04.909Z,27.40
2023-05-10T14:53:04.915Z,27.40
2023-05-10T14:54:04.915Z,27.39
2023-05-10T14:55:04.886Z,27.42
2023-05-10T14:56:04.865Z,27.40
2023-05-10T14:57:04.860Z,27.39
2023-05-10T14:58:04.852Z,27.38
2023-05-10T14:59:04.831Z,27.38
2023-05-10T15:00:04.828Z,27.39
2023-05-10T15:01:04.846Z,27.39
2023-05-10T15:02:04.855Z,27.40
2023-05-10T15:03:04.898Z,27.39
2023-05-10T15:04:04.806Z,27.39
2023-05-10T15:05:04.817Z,27.39
2023-05-10T15:06:04.810Z,27.36
2023-05-10T15:07:04.946Z,27.42
2023-05-10T15:08:04.788Z,27.39
2023-05-10T15:09:04.937Z,27.39
2023-05-10T15:10:04.878Z,27.42
2023-05-10T15:11:04.756Z,27.38
2023-05-10T15:12:04.831Z,27.39
2023-05-10T15:13:04.767Z,27.39
2023-05-10T15:14:04.755Z,27.38
2023-05-10T15:15:04.784Z,27.38
2023-05-10T15:16:04.780Z,27.36
2023-05-10T15:17:04.765Z,27.36
2023-05-10T15:18:04.755Z,27.38
2023-05-10T15:19:04.745Z,27.38
2023-05-10T15:20:04.765Z,27.38
2023-05-10T15:21:04.712Z,27.39
2023-05-10T15:22:04.722Z,27.36
2023-05-10T15:23:04.675Z,27.36
2023-05-10T15:24:04.669Z,27.38
2023-05-10T15:25:04.668Z,27.36
2023-05-10T15:26:04.671Z,27.38
2023-05-10T15:27:04.716Z,27.38
2023-05-10T15:28:04.624Z,27.35
2023-05-10T15:29:05.295Z,27.36
2023-05-10T15:30:05.326Z,27.36
2023-05-10T15:31:04.853Z,27.38
2023-05-10T15:32:04.922Z,27.35
2023-05-10T15:33:04.830Z,27.35
2023-05-10T15:34:04.764Z,27.36
2023-05-10T15:35:04.767Z,27.33
2023-05-10T15:36:04.804Z,27.36
2023-05-10T15:37:04.802Z,27.33
2023-05-10T15:38:04.848Z,27.35
2023-05-10T15:39:04.837Z,27.36
2023-05-10T15:40:05.153Z,27.36
2023-05-10T15:41:04.925Z,27.32
2023-05-10T15:42:04.868Z,27.35
2023-05-10T15:43:04.905Z,27.36
2023-05-10T15:44:04.802Z,27.33
2023-05-10T15:45:04.804Z,27.35
2023-05-10T15:46:04.798Z,27.35
2023-05-10T15:47:04.894Z,27.35
2023-05-10T15:48:04.873Z,27.33
2023-05-10T15:49:04.806Z,27.33
2023-05-10T15:50:04.784Z,27.33
2023-05-10T15:51:04.782Z,27.33
2023-05-10T15:52:04.755Z,27.33
2023-05-10T15:53:04.788Z,27.32
2023-05-10T15:54:07.718Z,27.33
2023-05-10T15:55:04.754Z,27.33
2023-05-10T15:56:04.805Z,27.32
2023-05-10T15:57:04.818Z,27.33
2023-05-10T15:58:04.818Z,27.33
2023-05-10T15:59:04.741Z,27.32
2023-05-10T16:00:04.744Z,27.32
2023-05-10T16:01:04.757Z,27.30
2023-05-10T16:02:04.766Z,27.30
2023-05-10T16:03:04.830Z,27.30
2023-05-10T16:04:04.738Z,27.32
2023-05-10T16:05:04.680Z,27.33
2023-05-10T16:06:05.384Z,27.32
2023-05-10T16:07:04.651Z,27.30
2023-05-10T16:08:04.663Z,27.29
2023-05-10T16:09:04.654Z,27.28
2023-05-10T16:10:04.856Z,27.30
2023-05-10T16:11:04.665Z,27.28
2023-05-10T16:12:04.638Z,27.28
2023-05-10T16:13:04.662Z,27.28
2023-05-10T16:14:07.039Z,27.29
2023-05-10T16:15:04.828Z,27.29
2023-05-10T16:16:04.873Z,27.28
2023-05-10T16:17:05.040Z,27.29
2023-05-10T16:18:04.905Z,27.28
2023-05-10T16:19:04.889Z,27.28
2023-05-10T16:20:04.936Z,27.26
2023-05-10T16:21:04.954Z,27.30
2023-05-10T16:22:04.845Z,27.26
2023-05-10T16:23:04.879Z,27.26
2023-05-10T16:24:05.837Z,27.28
2023-05-10T16:25:05.815Z,27.25
2023-05-10T16:26:04.845Z,27.28
2023-05-10T16:27:04.865Z,27.26
2023-05-10T16:28:04.867Z,27.28
2023-05-10T16:29:04.843Z,27.28
2023-05-10T16:30:05.414Z,27.25
2023-05-10T16:31:04.894Z,27.25
2023-05-10T16:32:04.793Z,27.22
2023-05-10T16:33:04.844Z,27.26
2023-05-10T16:34:04.778Z,27.29
2023-05-10T16:35:04.781Z,27.24
2023-05-10T16:36:04.817Z,27.25
2023-05-10T16:37:05.333Z,27.25
2023-05-10T16:38:04.830Z,27.22
2023-05-10T16:39:06.329Z,27.24
2023-05-10T16:40:04.746Z,27.24
2023-05-10T16:41:04.758Z,27.24
2023-05-10T16:42:04.726Z,27.22
2023-05-10T16:43:04.790Z,27.24
2023-05-10T16:44:04.742Z,27.24
2023-05-10T16:45:04.716Z,27.24
2023-05-10T16:46:04.941Z,27.21
2023-05-10T16:47:04.708Z,27.22
2023-05-10T16:48:04.787Z,27.22
2023-05-10T16:49:04.702Z,27.21
2023-05-10T16:50:04.663Z,27.24
2023-05-10T16:51:04.727Z,27.22
2023-05-10T16:52:04.652Z,27.21
2023-05-10T16:53:04.721Z,27.19
2023-05-10T16:54:04.658Z,27.21
2023-05-10T16:55:05.369Z,27.21
2023-05-10T16:56:04.661Z,27.19
2023-05-10T16:57:04.641Z,27.21
2023-05-10T16:58:04.659Z,27.24
2023-05-10T16:59:05.372Z,27.21
2023-05-10T17:00:04.669Z,27.21
2023-05-10T17:01:04.662Z,27.19
2023-05-10T17:02:04.716Z,27.21
2023-05-10T17:03:04.940Z,27.21
2023-05-10T17:04:04.630Z,27.19
2023-05-10T17:05:04.584Z,27.16
2023-05-10T17:06:04.568Z,27.19
2023-05-10T17:07:04.565Z,27.19
2023-05-10T17:08:04.624Z,27.19
2023-05-10T17:09:04.552Z,27.19
2023-05-10T17:10:04.538Z,27.19
2023-05-10T17:11:04.545Z,27.19
2023-05-10T17:12:04.521Z,27.18
2023-05-10T17:13:04.513Z,27.18
2023-05-10T17:14:04.503Z,27.18
2023-05-10T17:15:04.527Z,27.16
2023-05-10T17:16:04.840Z,27.15
2023-05-10T17:17:04.538Z,27.16
2023-05-10T17:18:04.500Z,27.15
2023-05-10T17:19:04.592Z,27.16
2023-05-10T17:20:04.463Z,27.16
2023-05-10T17:21:04.495Z,27.18
2023-05-10T17:22:04.462Z,27.16
2023-05-10T17:23:04.839Z,27.15
2023-05-10T17:24:04.447Z,27.16
2023-05-10T17:25:04.420Z,27.15
2023-05-10T17:26:04.446Z,27.13
2023-05-10T17:27:04.478Z,27.13
2023-05-10T17:28:04.863Z,27.15
2023-05-10T17:29:04.418Z,27.15
2023-05-10T17:30:04.561Z,27.11
2023-05-10T17:31:04.454Z,27.13
2023-05-10T17:32:04.432Z,27.11
2023-05-10T17:33:04.450Z,27.13
2023-05-10T17:34:05.843Z,27.12
2023-05-10T17:35:04.444Z,27.13
2023-05-10T17:36:04.464Z,27.12
2023-05-10T17:37:04.489Z,27.11
2023-05-10T17:38:04.543Z,27.13
2023-05-10T17:39:04.613Z,27.13
2023-05-10T17:40:04.617Z,27.12
2023-05-10T17:41:04.626Z,27.12
2023-05-10T17:42:04.665Z,27.12
2023-05-10T17:43:04.699Z,27.09
2023-05-10T17:44:04.728Z,27.11
2023-05-10T17:45:04.854Z,27.11
2023-05-10T17:46:04.855Z,27.11
2023-05-10T17:47:04.970Z,27.11
2023-05-10T17:48:05.001Z,27.11
2023-05-10T17:49:06.870Z,27.11
2023-05-10T17:50:05.043Z,27.11
2023-05-10T17:51:05.023Z,27.11
2023-05-10T17:52:05.070Z,27.11
2023-05-10T17:53:05.118Z,27.09
2023-05-10T17:54:05.170Z,27.09
2023-05-10T17:55:05.240Z,27.06
2023-05-10T17:56:05.252Z,27.08
2023-05-10T17:57:05.291Z,27.09
2023-05-10T17:58:05.334Z,27.06
2023-05-10T17:59:05.378Z,27.08
2023-05-10T18:00:05.434Z,27.09
2023-05-10T18:01:05.494Z,27.08
2023-05-10T18:02:05.478Z,27.09
2023-05-10T18:03:05.639Z,27.08
2023-05-10T18:04:05.567Z,27.11
2023-05-10T18:05:05.650Z,27.06
2023-05-10T18:06:05.637Z,27.06
2023-05-10T18:07:05.521Z,27.06
2023-05-10T18:08:05.860Z,27.06
2023-05-10T18:09:06.349Z,27.06
2023-05-10T18:10:05.500Z,27.06
2023-05-10T18:11:05.491Z,27.03
2023-05-10T18:12:05.496Z,27.05
2023-05-10T18:13:08.038Z,27.03
2023-05-10T18:14:05.477Z,27.03
2023-05-10T18:15:05.511Z,27.03
2023-05-10T18:16:05.461Z,27.03
2023-05-10T18:17:05.551Z,27.01
2023-05-10T18:18:05.470Z,27.02
2023-05-10T18:19:05.497Z,27.03
2023-05-10T18:20:05.446Z,27.02
2023-05-10T18:21:05.460Z,27.02
2023-05-10T18:22:05.821Z,27.02
2023-05-10T18:23:05.421Z,27.03
2023-05-10T18:24:10.386Z,27.01
2023-05-10T18:25:05.400Z,26.99
2023-05-10T18:26:06.361Z,27.02
2023-05-10T18:27:06.350Z,27.02
2023-05-10T18:28:06.377Z,27.02
2023-05-10T18:29:05.378Z,27.02
2023-05-10T18:30:05.412Z,26.98
2023-05-10T18:31:05.402Z,26.99
2023-05-10T18:32:05.400Z,27.01
2023-05-10T18:33:05.408Z,26.99
2023-05-10T18:34:05.356Z,26.99
2023-05-10T18:35:05.331Z,27.01
2023-05-10T18:36:05.881Z,27.02
2023-05-10T18:37:05.335Z,26.98
2023-05-10T18:38:05.338Z,27.01
2023-05-10T18:39:05.339Z,26.99
2023-05-10T18:40:05.297Z,26.98
2023-05-10T18:41:05.318Z,26.99
2023-05-10T18:42:05.301Z,26.97
2023-05-10T18:43:05.325Z,26.98
2023-05-10T18:44:05.321Z,26.97
2023-05-10T18:45:05.282Z,26.97
2023-05-10T18:46:05.290Z,26.98
2023-05-10T18:47:05.865Z,26.97
2023-05-10T18:48:05.337Z,26.98
2023-05-10T18:49:05.285Z,26.97
2023-05-10T18:50:06.903Z,26.98
2023-05-10T18:51:05.272Z,26.97
2023-05-10T18:52:05.260Z,26.94
2023-05-10T18:53:05.241Z,26.94
2023-05-10T18:54:05.253Z,26.97
2023-05-10T18:55:05.265Z,26.94
2023-05-10T18:56:05.209Z,26.95
2023-05-10T18:57:05.198Z,26.94
2023-05-10T18:58:05.252Z,26.97
2023-05-10T18:59:05.369Z,26.95
2023-05-10T19:00:05.170Z,26.95
2023-05-10T19:01:05.898Z,26.95
2023-05-10T19:02:05.159Z,26.94
2023-05-10T19:03:05.215Z,26.94
2023-05-10T19:04:05.423Z,26.94
2023-05-10T19:05:05.128Z,26.94
2023-05-10T19:06:05.157Z,26.94
2023-05-10T19:07:05.905Z,26.94
2023-05-10T19:08:05.118Z,26.92
2023-05-10T19:09:05.129Z,26.92
2023-05-10T19:10:05.162Z,26.92
2023-05-10T19:11:05.240Z,26.94
2023-05-10T19:12:05.223Z,26.91
2023-05-10T19:13:05.280Z,26.94
2023-05-10T19:14:05.378Z,26.92
2023-05-10T19:15:05.231Z,26.91
2023-05-10T19:16:05.371Z,26.91
2023-05-10T19:17:06.384Z,26.90
2023-05-10T19:18:05.201Z,26.92
2023-05-10T19:19:05.262Z,26.92
2023-05-10T19:20:05.235Z,26.92
2023-05-10T19:21:05.177Z,26.91
2023-05-10T19:22:05.166Z,26.90
2023-05-10T19:24:05.218Z,26.91
2023-05-10T19:25:05.118Z,26.91
2023-05-10T19:26:05.139Z,26.90
2023-05-10T19:27:05.209Z,26.90
2023-05-10T19:28:05.888Z,26.90
2023-05-10T19:29:05.125Z,26.87
2023-05-10T19:30:05.133Z,26.90
2023-05-10T19:31:06.175Z,26.88
2023-05-10T19:32:06.012Z,26.91
2023-05-10T19:33:05.946Z,26.90
2023-05-10T19:34:05.462Z,26.88
2023-05-10T19:35:05.110Z,26.88
2023-05-10T19:36:05.184Z,26.88
2023-05-10T19:37:05.218Z,26.90
2023-05-10T19:38:05.292Z,26.88
2023-05-10T19:39:05.312Z,26.87
2023-05-10T19:40:05.894Z,26.85
2023-05-10T19:41:06.995Z,26.87
2023-05-10T19:42:05.269Z,26.87
2023-05-10T19:43:05.871Z,26.87
2023-05-10T19:44:05.262Z,26.88
2023-05-10T19:45:05.358Z,26.87
2023-05-10T19:46:05.283Z,26.87
2023-05-10T19:47:05.980Z,26.88
2023-05-10T19:48:05.233Z,26.87
2023-05-10T19:49:05.255Z,26.87